Irving North's Hourly Summary for Wednesday, May 9, 2018
Hour Temp
(f)
RH
(%)
Solar Rad.
(MJ/m2)
Rainfall
(in)
Wind
(mph)
5/9/2018 12:00 AM 75 50 0 0 5.16
5/9/2018 1:00 AM 75 45 0 0 8.06
5/9/2018 2:00 AM 74 47 0 0 7.67
5/9/2018 3:00 AM 72 51 0 0 7.7
5/9/2018 4:00 AM 70 52 0 0 6.21
5/9/2018 5:00 AM 68 52 0 0 5.25
5/9/2018 6:00 AM 67 55 0.03 0 4.74
5/9/2018 7:00 AM 68 59 0.28 0 4.83
5/9/2018 8:00 AM 70 53 1.06 0 4.04
5/9/2018 9:00 AM 74 49 1.83 0 4.71
5/9/2018 10:00 AM 77 48 2.36 0 6.16
5/9/2018 11:00 AM 80 39 2.55 0 7.77
5/9/2018 12:00 PM 82 36 3.38 0 8.63
5/9/2018 1:00 PM 83 33 3.37 0 10.58
5/9/2018 2:00 PM 85 31 2.99 0 10.56
5/9/2018 3:00 PM 86 31 2.81 0 10.02
5/9/2018 4:00 PM 86 32 2.4 0 9.53
5/9/2018 5:00 PM 86 30 1.72 0 9.72
5/9/2018 6:00 PM 85 32 0.43 0 9.32
5/9/2018 7:00 PM 83 34 0.3 0 8.04
5/9/2018 8:00 PM 81 38 0.01 0 5.66
5/9/2018 9:00 PM 79 41 0 0 4.78
5/9/2018 10:00 PM 77 45 0 0 5.08
5/9/2018 11:00 PM 76 47 0 0 5.67
Data Summary 77 42 25.52 0.00 7.08